YFC91 WSSL-WSSL

Flight info

Callsign YFC91
Flight time 0h 28m
Altitude 8000
Route LATA
Aircraft DA40/L-SBDGRY/S

Departure

Time 2026-04-21 16:01
Airport Seletar Airport (WSSL)

Arrival

Time 2026-04-21 16:29
Airport Seletar Airport (WSSL)
Time Latitude Longitude Altitude Speed Heading
2026-04-21 15:46 1.41425 103.86349 49 ft 0 kts 149°
2026-04-21 15:51 1.41424 103.86350 49 ft 3 kts 149°
2026-04-21 15:52 1.41389 103.86380 49 ft 4 kts 66°
2026-04-21 15:52 1.41427 103.86408 49 ft 10 kts 34°
2026-04-21 15:52 1.41503 103.86444 49 ft 13 kts 32°
2026-04-21 15:52 1.41616 103.86524 49 ft 22 kts 34°
2026-04-21 15:53 1.41758 103.86616 49 ft 29 kts 33°
2026-04-21 15:53 1.41928 103.86727 49 ft 29 kts 33°
2026-04-21 15:53 1.42089 103.86832 49 ft 26 kts 33°
2026-04-21 15:53 1.42232 103.86926 49 ft 23 kts 32°
2026-04-21 15:54 1.42280 103.86956 49 ft 0 kts 31°
2026-04-21 15:55 1.42281 103.86957 49 ft 2 kts 31°
2026-04-21 15:56 1.42307 103.86979 49 ft 3 kts 65°
2026-04-21 15:56 1.42305 103.87011 49 ft 7 kts 121°
2026-04-21 15:56 1.42293 103.87029 49 ft 0 kts 123°
2026-04-21 15:57 1.42246 103.87096 49 ft 12 kts 139°
2026-04-21 15:57 1.42204 103.87098 49 ft 3 kts 213°
2026-04-21 15:58 1.42203 103.87097 49 ft 0 kts 212°
2026-04-21 16:00 1.42077 103.87015 49 ft 48 kts 214°
2026-04-21 16:00 1.41698 103.86766 122 ft 73 kts 211°
2026-04-21 16:00 1.41262 103.86487 316 ft 78 kts 211°
2026-04-21 16:00 1.40797 103.86196 552 ft 79 kts 211°
2026-04-21 16:01 1.40385 103.85871 783 ft 78 kts 245°
2026-04-21 16:01 1.40322 103.85316 984 ft 79 kts 264°
2026-04-21 16:01 1.40275 103.84755 1176 ft 82 kts 264°
2026-04-21 16:01 1.40162 103.84203 1391 ft 82 kts 244°
2026-04-21 16:02 1.39827 103.83743 1597 ft 84 kts 223°
2026-04-21 16:02 1.39388 103.83334 1784 ft 87 kts 220°
2026-04-21 16:02 1.39235 103.82774 1983 ft 86 kts 271°
2026-04-21 16:02 1.39238 103.82196 2215 ft 83 kts 268°
2026-04-21 16:03 1.39217 103.81621 2424 ft 82 kts 266°
2026-04-21 16:03 1.39158 103.81055 2608 ft 83 kts 262°
2026-04-21 16:03 1.39085 103.80486 2803 ft 82 kts 261°
2026-04-21 16:03 1.38996 103.79923 2993 ft 83 kts 257°
2026-04-21 16:04 1.38844 103.79354 3173 ft 85 kts 251°
2026-04-21 16:04 1.38636 103.78809 3365 ft 83 kts 246°
2026-04-21 16:04 1.38205 103.78470 3525 ft 87 kts 185°
2026-04-21 16:04 1.37799 103.78768 3663 ft 88 kts 75°
2026-04-21 16:05 1.38272 103.78967 3895 ft 76 kts 358°
2026-04-21 16:05 1.38790 103.78823 4028 ft 80 kts 308°
2026-04-21 16:05 1.38685 103.78353 4099 ft 94 kts 181°
2026-04-21 16:05 1.38092 103.78507 4322 ft 88 kts 136°
2026-04-21 16:06 1.38248 103.78967 4454 ft 85 kts 15°
2026-04-21 16:06 1.38829 103.79037 4654 ft 83 kts 359°
2026-04-21 16:06 1.39414 103.79004 4806 ft 85 kts 353°
2026-04-21 16:06 1.39997 103.78939 4954 ft 88 kts 350°
2026-04-21 16:07 1.40638 103.78829 5011 ft 102 kts 348°
2026-04-21 16:07 1.41347 103.78644 5056 ft 103 kts 323°
2026-04-21 16:07 1.41198 103.78103 4972 ft 113 kts 178°
2026-04-21 16:07 1.40412 103.78183 4987 ft 115 kts 175°
2026-04-21 16:08 1.38832 103.78359 5067 ft 112 kts 174°
2026-04-21 16:08 1.38723 103.78878 5056 ft 111 kts 22°
2026-04-21 16:08 1.39451 103.79147 5015 ft 115 kts 18°
2026-04-21 16:09 1.40244 103.79265 5016 ft 116 kts
2026-04-21 16:09 1.41056 103.79312 5000 ft 118 kts
2026-04-21 16:09 1.41842 103.79258 5026 ft 114 kts 326°
2026-04-21 16:09 1.41740 103.78613 4995 ft 117 kts 204°
2026-04-21 16:10 1.40929 103.78511 5008 ft 118 kts 180°
2026-04-21 16:10 1.40108 103.78509 5016 ft 118 kts 180°
2026-04-21 16:10 1.39334 103.78653 4999 ft 119 kts 124°
2026-04-21 16:10 1.39756 103.79162 4985 ft 113 kts
2026-04-21 16:11 1.40538 103.79241 4995 ft 114 kts
2026-04-21 16:11 1.41318 103.79310 5020 ft 113 kts
2026-04-21 16:11 1.42113 103.79385 5007 ft 116 kts
2026-04-21 16:11 1.42694 103.78983 5012 ft 115 kts 273°
2026-04-21 16:12 1.42373 103.78595 5000 ft 118 kts 190°
2026-04-21 16:12 1.41312 103.78626 5043 ft 116 kts 178°
2026-04-21 16:12 1.40500 103.78662 5049 ft 117 kts 181°
2026-04-21 16:12 1.39736 103.78807 5054 ft 117 kts 124°
2026-04-21 16:13 1.40190 103.79240 5030 ft 111 kts
2026-04-21 16:13 1.40969 103.79335 5039 ft 113 kts
2026-04-21 16:13 1.41745 103.79419 5077 ft 111 kts
2026-04-21 16:13 1.42522 103.79502 5067 ft 115 kts
2026-04-21 16:14 1.43231 103.79372 5095 ft 110 kts 295°
2026-04-21 16:14 1.42920 103.78738 5042 ft 118 kts 201°
2026-04-21 16:14 1.42119 103.78629 5083 ft 116 kts 187°
2026-04-21 16:14 1.41318 103.78542 5116 ft 115 kts 187°
2026-04-21 16:15 1.40506 103.78445 5092 ft 118 kts 188°
2026-04-21 16:15 1.39679 103.78336 5083 ft 120 kts 188°
2026-04-21 16:15 1.38851 103.78210 5039 ft 124 kts 190°
2026-04-21 16:15 1.38015 103.78058 5045 ft 121 kts 191°
2026-04-21 16:16 1.37414 103.78348 5073 ft 115 kts 77°
2026-04-21 16:16 1.38108 103.78652 4991 ft 119 kts
2026-04-21 16:16 1.38923 103.78597 4978 ft 119 kts 355°
2026-04-21 16:16 1.39752 103.78519 4965 ft 119 kts 353°
2026-04-21 16:17 1.40574 103.78430 4961 ft 119 kts 353°
2026-04-21 16:17 1.41395 103.78335 4952 ft 119 kts 352°
2026-04-21 16:17 1.41719 103.77784 4877 ft 122 kts 225°
2026-04-21 16:17 1.40872 103.77799 4770 ft 129 kts 169°
2026-04-21 16:18 1.39999 103.77972 4733 ft 129 kts 169°
2026-04-21 16:18 1.39095 103.78141 4610 ft 124 kts 171°
2026-04-21 16:18 1.38346 103.78258 4522 ft 100 kts 174°
2026-04-21 16:18 1.37689 103.78362 4348 ft 95 kts 162°
2026-04-21 16:19 1.37335 103.78840 4146 ft 93 kts 76°
2026-04-21 16:19 1.37833 103.79139 3925 ft 90 kts
2026-04-21 16:19 1.38454 103.79167 3757 ft 89 kts 356°
2026-04-21 16:19 1.39058 103.79014 3516 ft 92 kts 345°
2026-04-21 16:20 1.39628 103.78985 3407 ft 84 kts 43°
2026-04-21 16:20 1.39616 103.79609 3133 ft 100 kts 110°
2026-04-21 16:20 1.39377 103.80322 2989 ft 117 kts 106°
2026-04-21 16:20 1.39119 103.81120 3000 ft 122 kts 105°
2026-04-21 16:21 1.39158 103.81957 3019 ft 125 kts 71°
2026-04-21 16:21 1.39444 103.82792 2990 ft 128 kts 68°
2026-04-21 16:21 1.39836 103.83496 2980 ft 108 kts 53°
2026-04-21 16:21 1.40323 103.84045 2902 ft 103 kts 45°
2026-04-21 16:22 1.40672 103.84389 2935 ft 110 kts 43°
2026-04-21 16:22 1.41478 103.85110 2968 ft 122 kts 41°
2026-04-21 16:22 1.41919 103.85473 2969 ft 126 kts 38°
2026-04-21 16:22 1.42639 103.86024 2947 ft 131 kts 37°
2026-04-21 16:23 1.43512 103.86765 2992 ft 104 kts 63°
2026-04-21 16:23 1.43489 103.87254 2986 ft 115 kts 120°
2026-04-21 16:23 1.42734 103.87458 2960 ft 126 kts 202°
2026-04-21 16:23 1.41944 103.87055 3005 ft 131 kts 208°
2026-04-21 16:24 1.41150 103.86606 2803 ft 127 kts 212°
2026-04-21 16:24 1.40465 103.86111 2529 ft 114 kts 241°
2026-04-21 16:24 1.40626 103.85403 2164 ft 113 kts 304°
2026-04-21 16:24 1.41436 103.85277 1982 ft 111 kts 31°
2026-04-21 16:25 1.41900 103.85560 1972 ft 120 kts 31°
2026-04-21 16:25 1.42638 103.86013 1952 ft 121 kts 32°
2026-04-21 16:25 1.43325 103.86427 1941 ft 116 kts 31°
2026-04-21 16:25 1.43867 103.86898 1820 ft 100 kts 78°
2026-04-21 16:26 1.43462 103.87426 1514 ft 103 kts 163°
2026-04-21 16:26 1.42732 103.87420 1191 ft 107 kts 193°
2026-04-21 16:26 1.42060 103.87085 981 ft 114 kts 212°
2026-04-21 16:26 1.41370 103.86616 990 ft 126 kts 215°
2026-04-21 16:27 1.40724 103.86091 1034 ft 111 kts 240°
2026-04-21 16:27 1.40897 103.85404 1020 ft 109 kts 324°
2026-04-21 16:27 1.41612 103.85431 950 ft 111 kts 25°
2026-04-21 16:27 1.42282 103.85800 969 ft 112 kts 30°
2026-04-21 16:28 1.42922 103.86181 927 ft 98 kts 24°
2026-04-21 16:28 1.43448 103.86562 774 ft 88 kts 41°
2026-04-21 16:28 1.43563 103.87092 656 ft 85 kts 117°
2026-04-21 16:28 1.43220 103.87539 541 ft 83 kts 152°
2026-04-21 16:29 1.42680 103.87425 329 ft 85 kts 214°
2026-04-21 16:29 1.42204 103.87097 102 ft 78 kts 212°
2026-04-21 16:29 1.41791 103.86828 49 ft 59 kts 213°
2026-04-21 16:29 1.41533 103.86658 50 ft 29 kts 215°
2026-04-21 16:30 1.41548 103.86551 49 ft 18 kts 306°
2026-04-21 16:30 1.41544 103.86497 49 ft 11 kts 212°
2026-04-21 16:30 1.41473 103.86449 49 ft 10 kts 227°
2026-04-21 16:30 1.41475 103.86418 49 ft 7 kts 310°
2026-04-21 16:31 1.41467 103.86385 49 ft 7 kts 235°
2026-04-21 16:31 1.41447 103.86382 49 ft 0 kts 146°